Pagrindinis puslapis
METAR-TAF:

METAR-TAF

Oro uostai :

Rygos oro uostas

Ryga, Latvija

platuma: 56-55N, ilguma: 023-58E, Aukštis: 10 m

Dabartinis oras

Ataskaita buvo paskelbta 20 minutes, ne 04:50 UTC
Vėjas 8 kt iš Pietų/Pietryčių
Temperatūra 24°C
Drėgmė 65%
Slėgis 1011 hPa
Matomumas 10 km arba daugiau
nėra debesų žemiau 1500 m ir nėra kamuolinių lietaus debesų

METAR: EVRA 220450Z 15008KT CAVOK 24/17 Q1011 NOSIG

Laikas: 08:10 (05:10 UTC)

Prognozė

Ataskaita buvo paskelbta 3 valandos ir 10 minutes, ne 02:00 UTC
Prognozė galioja nuo 22 metu 03 UTC su 23 metu 03 UTC
Vėjas 7 kt iš Pietryčių
Matomumas 10 km arba daugiau
nėra debesų žemiau 1500 m ir nėra kamuolinių lietaus debesų
Laikinai
nuo 22 metu 11 UTC su 23 metu 03 UTC
Išsisklaidę debesys ne aukštis 3000 ft, Liūtiniai kamuoliniai debesys.
Laikinai
nuo 22 metu 13 UTC su 22 metu 18 UTC
Vėjas 28 kt nuo kintamojo kryptimis
Matomumas: 4000 m
perkūnija, lietus

TAF: EVRA 220200Z 2203/2303 14007KT CAVOK TEMPO 2211/2303 SCT030CB TEMPO 2213/2218 VRB28KT 4000 TSRA

Orai ataskaitas ir orų prognozės (METAR, TAF).

turimą stotys yra geltonos ir raudonos taškus žemėlapyje.

Perkelti pele per norėdami pamatyti stoties vardą.

Tada spustelėkite, norėdami matyti oro stebėjimo ir prognozės.

Norėdami pakeisti žemėlapį: spustelėkite ant žalios mygtukų su juodo kryžiaus žemyn,; žalią mygtuką su brūkšneliu, jei norite nutolinti; arba žalių rodyklių gretimoms žemėlapius.


METAR-TAF: